Time,TemperatureF,DewpointF,PressureIn,WindDirection,WindDirectionDegrees,WindSpeedMPH,WindSpeedGustMPH,Humidity,HourlyPrecipIn,Conditions,Clouds,dailyrainin,SoftwareType,DateUTC
2013-05-26 00:05:00,49.2,48.7,30.05,ESE,109,5.0,17.0,98,0.00,,,0.00,Wunderground v.1.15,2013-05-26 05:05:00,
2013-05-26 00:10:00,49.2,48.7,30.05,SE,144,5.0,6.0,98,0.00,,,0.00,Wunderground v.1.15,2013-05-26 05:10:00,
2013-05-26 00:15:00,49.2,48.7,30.06,SSE,157,9.0,9.0,98,0.00,,,0.00,Wunderground v.1.15,2013-05-26 05:15:00,
2013-05-26 00:20:00,49.2,48.7,30.06,SE,124,9.0,9.0,98,0.00,,,0.00,Wunderground v.1.15,2013-05-26 05:20:00,
2013-05-26 00:25:00,49.2,48.7,30.06,ESE,117,11.0,18.0,98,0.00,,,0.00,Wunderground v.1.15,2013-05-26 05:25:00,
2013-05-26 00:31:00,49.2,48.7,30.02,ESE,115,15.0,15.0,98,0.00,,,0.00,Wunderground v.1.15,2013-05-26 05:31:00,
2013-05-26 00:36:00,49.1,48.6,30.02,SE,130,13.0,15.0,98,0.00,,,0.00,Wunderground v.1.15,2013-05-26 05:36:00,
2013-05-26 00:41:00,49.1,48.6,30.02,SE,129,7.0,8.0,98,0.00,,,0.00,Wunderground v.1.15,2013-05-26 05:41:00,
2013-05-26 00:46:00,49.1,48.6,30.02,SE,126,15.0,15.0,98,0.00,,,0.00,Wunderground v.1.15,2013-05-26 05:46:00,
2013-05-26 00:51:00,49.2,48.7,30.02,South,171,10.0,10.0,98,0.00,,,0.00,Wunderground v.1.15,2013-05-26 05:51:00,
2013-05-26 00:56:00,49.1,48.6,30.02,SE,134,5.0,10.0,98,0.00,,,0.00,Wunderground v.1.15,2013-05-26 05:56:00,
2013-05-26 01:02:00,49.1,48.6,30.04,East,84,4.0,7.0,98,0.00,,,0.00,Wunderground v.1.15,2013-05-26 06:02:00,
2013-05-26 01:07:00,49.1,48.6,30.04,SSE,164,5.0,7.0,98,0.00,,,0.00,Wunderground v.1.15,2013-05-26 06:07:00,
2013-05-26 01:12:00,49.1,48.6,30.04,SSW,192,8.0,8.0,98,0.00,,,0.00,Wunderground v.1.15,2013-05-26 06:12:00,
2013-05-26 01:17:00,49.1,48.6,30.02,SE,138,5.0,8.0,98,0.00,,,0.00,Wunderground v.1.15,2013-05-26 06:17:00,
2013-05-26 01:22:00,49.1,48.6,30.02,South,175,6.0,6.0,98,0.00,,,0.00,Wunderground v.1.15,2013-05-26 06:22:00,
2013-05-26 01:28:00,49.2,48.7,30.02,SE,129,4.0,9.0,98,0.00,,,0.00,Wunderground v.1.15,2013-05-26 06:28:00,
2013-05-26 01:33:00,49.1,48.6,30.02,SE,126,12.0,12.0,98,0.00,,,0.00,Wunderground v.1.15,2013-05-26 06:33:00,
2013-05-26 01:38:00,49.1,48.6,30.02,East,83,0.0,12.0,98,0.00,,,0.00,Wunderground v.1.15,2013-05-26 06:38:00,
2013-05-26 01:43:00,49.1,48.6,30.02,South,170,0.0,8.0,98,0.00,,,0.00,Wunderground v.1.15,2013-05-26 06:43:00,
2013-05-26 01:48:00,49.2,48.7,30.02,East,86,0.0,8.0,98,0.00,,,0.00,Wunderground v.1.15,2013-05-26 06:48:00,
2013-05-26 01:53:00,49.2,48.7,30.02,East,80,0.0,3.0,98,0.00,,,0.00,Wunderground v.1.15,2013-05-26 06:53:00,
2013-05-26 01:58:00,49.2,48.7,30.02,East,93,7.0,7.0,98,0.00,,,0.00,Wunderground v.1.15,2013-05-26 06:58:00,
2013-05-26 02:03:00,49.2,48.7,30.04,ESE,122,6.0,10.0,98,0.00,,,0.00,Wunderground v.1.15,2013-05-26 07:03:00,
2013-05-26 02:08:00,49.2,48.7,30.04,SE,132,0.0,15.0,98,0.00,,,0.01,Wunderground v.1.15,2013-05-26 07:08:00,
2013-05-26 02:13:00,49.2,48.7,30.04,East,92,3.0,14.0,98,0.00,,,0.01,Wunderground v.1.15,2013-05-26 07:13:00,
2013-05-26 02:18:00,49.2,48.7,30.02,ESE,105,5.0,19.0,98,0.00,,,0.01,Wunderground v.1.15,2013-05-26 07:18:00,
2013-05-26 02:23:00,49.2,48.7,30.02,SSE,155,4.0,13.0,98,0.00,,,0.01,Wunderground v.1.15,2013-05-26 07:23:00,
2013-05-26 02:28:00,49.4,48.6,30.02,East,86,6.0,13.0,97,0.00,,,0.01,Wunderground v.1.15,2013-05-26 07:28:00,
2013-05-26 02:33:00,49.4,48.6,30.02,SE,130,13.0,14.0,97,0.00,,,0.02,Wunderground v.1.15,2013-05-26 07:33:00,
2013-05-26 02:38:00,49.2,48.4,30.02,East,100,7.0,15.0,97,0.00,,,0.02,Wunderground v.1.15,2013-05-26 07:38:00,
2013-05-26 02:43:00,49.2,48.4,30.02,SE,130,2.0,14.0,97,0.07,,,0.03,Wunderground v.1.15,2013-05-26 07:43:00,
2013-05-26 02:48:00,49.4,48.6,29.99,ESE,116,2.0,15.0,97,0.07,,,0.03,Wunderground v.1.15,2013-05-26 07:48:00,
2013-05-26 02:53:00,49.4,48.6,29.99,South,169,3.0,14.0,97,0.07,,,0.04,Wunderground v.1.15,2013-05-26 07:53:00,
2013-05-26 02:58:00,49.4,48.6,29.99,East,96,6.0,18.0,97,0.07,,,0.04,Wunderground v.1.15,2013-05-26 07:58:00,
2013-05-26 03:03:00,49.4,48.6,30.00,East,84,5.0,10.0,97,0.04,,,0.04,Wunderground v.1.15,2013-05-26 08:03:00,
2013-05-26 03:08:00,49.4,48.6,30.00,ESE,105,6.0,12.0,97,0.23,,,0.06,Wunderground v.1.15,2013-05-26 08:08:00,
2013-05-26 03:13:00,49.5,48.7,30.00,SE,129,5.0,6.0,97,0.16,,,0.07,Wunderground v.1.15,2013-05-26 08:13:00,
2013-05-26 03:18:00,49.5,48.7,30.03,SSE,162,0.0,7.0,97,0.12,,,0.08,Wunderground v.1.15,2013-05-26 08:18:00,
2013-05-26 03:23:00,49.5,48.7,30.03,SSE,168,4.0,15.0,97,0.07,,,0.08,Wunderground v.1.15,2013-05-26 08:23:00,
2013-05-26 03:28:00,49.5,48.7,30.03,ESE,114,0.0,15.0,97,0.06,,,0.09,Wunderground v.1.15,2013-05-26 08:28:00,
2013-05-26 03:33:00,49.5,48.7,30.05,ESE,107,0.0,5.0,97,0.12,,,0.10,Wunderground v.1.15,2013-05-26 08:33:00,
2013-05-26 03:38:00,49.5,48.7,30.05,East,94,0.0,10.0,97,0.08,,,0.11,Wunderground v.1.15,2013-05-26 08:38:00,
2013-05-26 03:43:00,49.5,48.7,30.05,ESE,113,0.0,5.0,97,0.15,,,0.12,Wunderground v.1.15,2013-05-26 08:43:00,
2013-05-26 03:48:00,49.5,48.7,30.05,East,94,2.0,11.0,97,0.15,,,0.14,Wunderground v.1.15,2013-05-26 08:48:00,
2013-05-26 03:53:00,49.5,48.7,30.05,SE,132,8.0,8.0,97,0.11,,,0.14,Wunderground v.1.15,2013-05-26 08:53:00,
2013-05-26 03:58:00,49.5,48.7,30.05,NE,49,0.0,11.0,97,0.09,,,0.15,Wunderground v.1.15,2013-05-26 08:58:00,
2013-05-26 04:04:00,49.5,48.7,30.02,SSE,159,3.0,9.0,97,0.08,,,0.16,Wunderground v.1.15,2013-05-26 09:04:00,
2013-05-26 04:09:00,49.6,48.8,30.02,ESE,104,3.0,10.0,97,0.08,,,0.16,Wunderground v.1.15,2013-05-26 09:09:00,
2013-05-26 04:14:00,49.6,48.8,30.02,ESE,102,0.0,9.0,97,0.08,,,0.17,Wunderground v.1.15,2013-05-26 09:14:00,
2013-05-26 04:19:00,49.6,48.8,30.03,SSE,154,3.0,12.0,97,0.10,,,0.18,Wunderground v.1.15,2013-05-26 09:19:00,
2013-05-26 04:24:00,49.5,48.7,30.03,ENE,62,6.0,11.0,97,0.08,,,0.18,Wunderground v.1.15,2013-05-26 09:24:00,
2013-05-26 04:29:00,49.5,48.7,30.03,SE,130,3.0,12.0,97,0.30,,,0.20,Wunderground v.1.15,2013-05-26 09:29:00,
2013-05-26 04:34:00,49.5,48.7,29.98,ESE,121,10.0,14.0,97,0.16,,,0.21,Wunderground v.1.15,2013-05-26 09:34:00,
2013-05-26 04:39:00,49.4,48.6,29.98,ENE,72,11.0,14.0,97,0.19,,,0.23,Wunderground v.1.15,2013-05-26 09:39:00,
2013-05-26 04:44:00,49.5,48.7,29.98,NE,48,1.0,15.0,97,0.13,,,0.24,Wunderground v.1.15,2013-05-26 09:44:00,
2013-05-26 04:49:00,49.5,49.0,29.96,East,94,11.0,15.0,98,0.13,,,0.25,Wunderground v.1.15,2013-05-26 09:49:00,
2013-05-26 04:54:00,49.5,49.0,29.96,East,96,6.0,14.0,98,0.25,,,0.28,Wunderground v.1.15,2013-05-26 09:54:00,
2013-05-26 04:59:00,49.8,49.3,29.96,South,172,9.0,17.0,98,0.15,,,0.29,Wunderground v.1.15,2013-05-26 09:59:00,
2013-05-26 05:04:00,49.8,49.3,30.04,ESE,103,9.0,20.0,98,0.44,,,0.30,Wunderground v.1.15,2013-05-26 10:04:00,
2013-05-26 05:09:00,49.6,48.8,30.04,South,178,7.0,20.0,97,0.26,,,0.33,Wunderground v.1.15,2013-05-26 10:09:00,
2013-05-26 05:14:00,49.6,49.1,30.04,East,97,9.0,15.0,98,0.18,,,0.34,Wunderground v.1.15,2013-05-26 10:14:00,
2013-05-26 05:19:00,49.5,49.0,29.99,ESE,111,2.0,21.0,98,0.17,,,0.35,Wunderground v.1.15,2013-05-26 10:19:00,
2013-05-26 05:24:00,49.6,49.1,29.99,SSE,151,12.0,16.0,98,0.09,,,0.36,Wunderground v.1.15,2013-05-26 10:24:00,
2013-05-26 05:29:00,49.6,49.1,29.99,SSE,155,5.0,16.0,98,0.49,,,0.39,Wunderground v.1.15,2013-05-26 10:29:00,
2013-05-26 05:34:00,49.5,49.0,29.99,SE,140,13.0,19.0,98,0.17,,,0.40,Wunderground v.1.15,2013-05-26 10:34:00,
2013-05-26 05:39:00,49.5,49.0,29.99,ESE,116,1.0,19.0,98,0.14,,,0.41,Wunderground v.1.15,2013-05-26 10:39:00,
2013-05-26 05:44:00,49.5,49.0,29.99,East,82,10.0,11.0,98,0.17,,,0.43,Wunderground v.1.15,2013-05-26 10:44:00,
2013-05-26 05:49:00,49.5,49.0,29.99,ESE,103,6.0,14.0,98,0.43,,,0.45,Wunderground v.1.15,2013-05-26 10:49:00,
2013-05-26 05:54:00,49.5,49.0,29.99,SE,132,18.0,19.0,98,0.33,,,0.48,Wunderground v.1.15,2013-05-26 10:54:00,
2013-05-26 05:59:00,49.5,49.0,29.99,East,98,6.0,19.0,98,0.24,,,0.50,Wunderground v.1.15,2013-05-26 10:59:00,
2013-05-26 06:04:00,49.5,49.0,29.96,ENE,78,8.0,11.0,98,0.20,,,0.52,Wunderground v.1.15,2013-05-26 11:04:00,
2013-05-26 06:09:00,49.5,49.0,29.96,East,98,4.0,13.0,98,0.14,,,0.53,Wunderground v.1.15,2013-05-26 11:09:00,
2013-05-26 06:14:00,49.5,49.0,29.96,ESE,107,10.0,13.0,98,0.10,,,0.54,Wunderground v.1.15,2013-05-26 11:14:00,
2013-05-26 06:19:00,49.5,49.0,30.00,East,86,5.0,13.0,98,0.10,,,0.54,Wunderground v.1.15,2013-05-26 11:19:00,
2013-05-26 06:24:00,49.5,49.0,30.00,ESE,113,0.0,6.0,98,0.09,,,0.55,Wunderground v.1.15,2013-05-26 11:24:00,
2013-05-26 06:29:00,49.5,49.0,30.00,NNW,334,2.0,7.0,98,0.09,,,0.56,Wunderground v.1.15,2013-05-26 11:29:00,
2013-05-26 06:34:00,49.6,49.1,30.05,NNW,334,0.0,3.0,98,0.11,,,0.57,Wunderground v.1.15,2013-05-26 11:34:00,
2013-05-26 06:39:00,49.6,49.1,30.05,NE,42,0.0,3.0,98,0.09,,,0.57,Wunderground v.1.15,2013-05-26 11:39:00,
2013-05-26 06:44:00,49.6,49.1,30.05,ESE,103,3.0,8.0,98,0.08,,,0.58,Wunderground v.1.15,2013-05-26 11:44:00,
2013-05-26 06:49:00,49.5,49.0,30.04,East,80,2.0,12.0,98,0.12,,,0.59,Wunderground v.1.15,2013-05-26 11:49:00,
2013-05-26 06:54:00,49.5,49.0,30.04,East,92,1.0,6.0,98,0.07,,,0.60,Wunderground v.1.15,2013-05-26 11:54:00,
2013-05-26 06:59:00,49.5,49.0,30.04,ESE,110,1.0,9.0,98,0.07,,,0.60,Wunderground v.1.15,2013-05-26 11:59:00,
2013-05-26 07:04:00,49.6,49.1,30.05,ENE,74,3.0,6.0,98,0.06,,,0.61,Wunderground v.1.15,2013-05-26 12:04:00,
2013-05-26 07:09:00,49.5,49.0,30.05,SSE,159,3.0,8.0,98,0.06,,,0.61,Wunderground v.1.15,2013-05-26 12:09:00,
2013-05-26 07:14:00,49.6,49.1,30.05,SSE,165,0.0,5.0,98,0.06,,,0.61,Wunderground v.1.15,2013-05-26 12:14:00,
2013-05-26 07:20:00,49.6,49.1,30.06,SE,146,0.0,3.0,98,0.05,,,0.62,Wunderground v.1.15,2013-05-26 12:20:00,
2013-05-26 07:25:00,49.6,49.1,30.06,SSE,150,2.0,6.0,98,0.05,,,0.62,Wunderground v.1.15,2013-05-26 12:25:00,
2013-05-26 07:30:00,49.6,49.1,30.06,ESE,119,1.0,3.0,98,0.06,,,0.63,Wunderground v.1.15,2013-05-26 12:30:00,
2013-05-26 07:35:00,49.6,49.1,30.04,SSE,165,10.0,13.0,98,0.08,,,0.64,Wunderground v.1.15,2013-05-26 12:35:00,
2013-05-26 07:40:00,49.6,49.1,30.04,ESE,108,7.0,7.0,98,0.08,,,0.64,Wunderground v.1.15,2013-05-26 12:40:00,
2013-05-26 07:45:00,49.6,49.1,29.94,ESE,121,13.0,18.0,98,0.05,,,0.64,Wunderground v.1.15,2013-05-26 12:45:00,
2013-05-26 07:50:00,49.5,49.0,29.94,SSE,161,5.0,11.0,98,0.04,,,0.65,Wunderground v.1.15,2013-05-26 12:50:00,
2013-05-26 07:55:00,49.5,49.0,29.94,South,174,9.0,24.0,98,0.04,,,0.65,Wunderground v.1.15,2013-05-26 12:55:00,
2013-05-26 08:00:00,49.5,49.0,29.92,SSE,157,16.0,16.0,98,0.04,,,0.65,Wunderground v.1.15,2013-05-26 13:00:00,
2013-05-26 08:05:00,49.6,49.1,29.92,SE,125,16.0,20.0,98,0.00,,,0.65,Wunderground v.1.15,2013-05-26 13:05:00,
2013-05-26 08:11:00,49.8,49.3,29.92,ESE,121,12.0,20.0,98,0.00,,,0.65,Wunderground v.1.15,2013-05-26 13:11:00,
2013-05-26 08:16:00,49.9,49.4,29.92,SSE,148,4.0,20.0,98,0.00,,,0.65,Wunderground v.1.15,2013-05-26 13:16:00,
2013-05-26 08:21:00,49.9,49.4,29.92,ESE,111,10.0,15.0,98,0.00,,,0.65,Wunderground v.1.15,2013-05-26 13:21:00,
2013-05-26 08:26:00,50.1,49.6,29.92,ENE,75,4.0,15.0,98,0.00,,,0.65,Wunderground v.1.15,2013-05-26 13:26:00,
2013-05-26 08:31:00,50.2,49.7,29.94,ESE,121,3.0,7.0,98,0.00,,,0.65,Wunderground v.1.15,2013-05-26 13:31:00,
2013-05-26 08:36:00,50.4,49.9,29.94,SSE,168,6.0,14.0,98,0.00,,,0.65,Wunderground v.1.15,2013-05-26 13:36:00,
2013-05-26 08:41:00,50.4,49.9,29.94,SE,140,5.0,11.0,98,0.00,,,0.65,Wunderground v.1.15,2013-05-26 13:41:00,
2013-05-26 08:46:00,50.5,50.0,29.96,SSE,166,7.0,13.0,98,0.00,,,0.65,Wunderground v.1.15,2013-05-26 13:46:00,
2013-05-26 08:51:00,50.7,50.2,29.96,SSE,161,2.0,10.0,98,0.00,,,0.65,Wunderground v.1.15,2013-05-26 13:51:00,
2013-05-26 08:56:00,50.7,50.2,29.96,ESE,104,0.0,11.0,98,0.00,,,0.65,Wunderground v.1.15,2013-05-26 13:56:00,
2013-05-26 09:01:00,50.8,50.3,29.99,East,100,6.0,11.0,98,0.00,,,0.65,Wunderground v.1.15,2013-05-26 14:01:00,
2013-05-26 09:06:00,50.8,50.3,29.99,SE,128,0.0,11.0,98,0.00,,,0.65,Wunderground v.1.15,2013-05-26 14:06:00,
2013-05-26 09:11:00,51.0,50.5,29.99,East,100,3.0,3.0,98,0.00,,,0.65,Wunderground v.1.15,2013-05-26 14:11:00,
2013-05-26 09:16:00,51.1,50.6,29.99,SE,135,0.0,11.0,98,0.00,,,0.65,Wunderground v.1.15,2013-05-26 14:16:00,
2013-05-26 09:21:00,51.1,50.6,29.99,ESE,108,4.0,10.0,98,0.00,,,0.65,Wunderground v.1.15,2013-05-26 14:21:00,
2013-05-26 09:26:00,51.3,50.8,29.99,SE,132,5.0,11.0,98,0.00,,,0.65,Wunderground v.1.15,2013-05-26 14:26:00,
2013-05-26 09:31:00,51.4,50.9,29.97,ESE,114,3.0,11.0,98,0.00,,,0.65,Wunderground v.1.15,2013-05-26 14:31:00,
2013-05-26 09:36:00,51.4,50.9,29.97,ESE,118,4.0,11.0,98,0.00,,,0.65,Wunderground v.1.15,2013-05-26 14:36:00,
2013-05-26 09:41:00,51.4,50.9,29.97,ESE,117,0.0,11.0,98,0.00,,,0.65,Wunderground v.1.15,2013-05-26 14:41:00,
2013-05-26 09:46:00,51.4,50.9,29.98,South,169,2.0,11.0,98,0.00,,,0.65,Wunderground v.1.15,2013-05-26 14:46:00,
2013-05-26 09:51:00,51.4,50.9,29.98,SE,136,9.0,10.0,98,0.00,,,0.65,Wunderground v.1.15,2013-05-26 14:51:00,
2013-05-26 09:56:00,51.4,50.9,29.98,ESE,115,0.0,10.0,98,0.00,,,0.65,Wunderground v.1.15,2013-05-26 14:56:00,
2013-05-26 10:01:00,51.4,50.9,29.98,ESE,114,5.0,8.0,98,0.00,,,0.65,Wunderground v.1.15,2013-05-26 15:01:00,
2013-05-26 10:06:00,51.4,50.6,29.98,SE,127,2.0,11.0,97,0.00,,,0.65,Wunderground v.1.15,2013-05-26 15:06:00,
2013-05-26 10:11:00,51.3,50.5,29.98,ESE,109,2.0,7.0,97,0.00,,,0.65,Wunderground v.1.15,2013-05-26 15:11:00,
2013-05-26 10:16:00,51.3,50.5,29.99,ESE,113,6.0,9.0,97,0.00,,,0.65,Wunderground v.1.15,2013-05-26 15:16:00,
2013-05-26 10:21:00,51.4,50.6,29.99,ENE,78,3.0,3.0,97,0.00,,,0.65,Wunderground v.1.15,2013-05-26 15:21:00,
2013-05-26 10:26:00,51.4,50.6,29.99,East,81,3.0,4.0,97,0.00,,,0.65,Wunderground v.1.15,2013-05-26 15:26:00,
2013-05-26 10:31:00,51.6,50.8,30.02,East,81,0.0,1.0,97,0.00,,,0.65,Wunderground v.1.15,2013-05-26 15:31:00,
2013-05-26 10:36:00,51.7,50.9,30.02,East,81,0.0,1.0,97,0.00,,,0.65,Wunderground v.1.15,2013-05-26 15:36:00,
2013-05-26 10:41:00,51.7,50.9,30.02,ENE,57,0.0,0.0,97,0.00,,,0.65,Wunderground v.1.15,2013-05-26 15:41:00,
2013-05-26 10:46:00,51.9,51.1,30.02,ESE,105,0.0,5.0,97,0.00,,,0.65,Wunderground v.1.15,2013-05-26 15:46:00,
2013-05-26 10:51:00,51.9,51.1,30.02,East,82,2.0,5.0,97,0.00,,,0.65,Wunderground v.1.15,2013-05-26 15:51:00,
2013-05-26 10:57:00,52.0,51.2,30.02,East,94,0.0,5.0,97,0.00,,,0.65,Wunderground v.1.15,2013-05-26 15:57:00,
2013-05-26 11:02:00,52.0,51.2,30.03,East,94,3.0,5.0,97,0.00,,,0.65,Wunderground v.1.15,2013-05-26 16:02:00,
2013-05-26 11:07:00,52.0,51.2,30.03,NE,56,0.0,5.0,97,0.00,,,0.65,Wunderground v.1.15,2013-05-26 16:07:00,
2013-05-26 11:12:00,52.2,51.4,30.03,ENE,57,0.0,1.0,97,0.00,,,0.65,Wunderground v.1.15,2013-05-26 16:12:00,
2013-05-26 11:17:00,52.3,51.2,30.04,ENE,57,0.0,1.0,96,0.00,,,0.65,Wunderground v.1.15,2013-05-26 16:17:00,
2013-05-26 11:22:00,52.2,51.1,30.04,ENE,76,3.0,3.0,96,0.00,,,0.65,Wunderground v.1.15,2013-05-26 16:22:00,
2013-05-26 11:27:00,52.2,51.1,30.04,NE,51,4.0,6.0,96,0.00,,,0.65,Wunderground v.1.15,2013-05-26 16:27:00,
2013-05-26 11:32:00,52.3,51.2,30.03,East,82,0.0,7.0,96,0.00,,,0.65,Wunderground v.1.15,2013-05-26 16:32:00,
2013-05-26 11:37:00,52.3,51.2,30.03,East,89,3.0,7.0,96,0.00,,,0.65,Wunderground v.1.15,2013-05-26 16:37:00,
2013-05-26 11:42:00,52.3,51.2,30.03,ENE,71,4.0,6.0,96,0.00,,,0.65,Wunderground v.1.15,2013-05-26 16:42:00,
2013-05-26 11:47:00,52.5,51.4,30.03,East,86,0.0,7.0,96,0.00,,,0.65,Wunderground v.1.15,2013-05-26 16:47:00,
2013-05-26 11:52:00,52.2,50.8,30.03,East,94,3.0,10.0,95,0.00,,,0.65,Wunderground v.1.15,2013-05-26 16:52:00,
2013-05-26 11:57:00,52.2,50.8,30.03,ESE,111,5.0,10.0,95,0.00,,,0.65,Wunderground v.1.15,2013-05-26 16:57:00,
2013-05-26 12:02:00,52.2,51.1,30.02,East,82,1.0,10.0,96,0.00,,,0.65,Wunderground v.1.15,2013-05-26 17:02:00,
2013-05-26 12:07:00,52.2,50.8,30.02,SE,128,5.0,11.0,95,0.00,,,0.65,Wunderground v.1.15,2013-05-26 17:07:00,
2013-05-26 12:12:00,52.0,50.6,30.02,NE,55,2.0,14.0,95,0.00,,,0.65,Wunderground v.1.15,2013-05-26 17:12:00,
2013-05-26 12:17:00,51.9,50.5,29.99,ENE,69,3.0,14.0,95,0.00,,,0.65,Wunderground v.1.15,2013-05-26 17:17:00,
2013-05-26 12:22:00,52.0,50.6,29.99,ESE,113,5.0,11.0,95,0.00,,,0.65,Wunderground v.1.15,2013-05-26 17:22:00,
2013-05-26 12:27:00,52.0,50.6,29.99,East,81,0.0,12.0,95,0.00,,,0.65,Wunderground v.1.15,2013-05-26 17:27:00,
2013-05-26 12:32:00,52.2,50.8,30.01,ENE,61,0.0,5.0,95,0.00,,,0.65,Wunderground v.1.15,2013-05-26 17:32:00,
2013-05-26 12:37:00,52.3,50.9,30.01,ENE,65,0.0,5.0,95,0.00,,,0.65,Wunderground v.1.15,2013-05-26 17:37:00,
2013-05-26 12:43:00,52.5,51.1,30.01,SSE,152,5.0,7.0,95,0.00,,,0.65,Wunderground v.1.15,2013-05-26 17:43:00,
2013-05-26 12:48:00,52.6,51.2,30.01,East,88,7.0,8.0,95,0.00,,,0.65,Wunderground v.1.15,2013-05-26 17:48:00,
2013-05-26 12:53:00,52.8,51.4,30.01,SE,140,2.0,6.0,95,0.00,,,0.65,Wunderground v.1.15,2013-05-26 17:53:00,
2013-05-26 12:58:00,52.9,51.5,30.01,ESE,115,4.0,8.0,95,0.00,,,0.65,Wunderground v.1.15,2013-05-26 17:58:00,
2013-05-26 13:03:00,52.9,51.5,30.00,ESE,105,0.0,4.0,95,0.00,,,0.65,Wunderground v.1.15,2013-05-26 18:03:00,
2013-05-26 13:08:00,53.1,51.4,30.00,SE,132,6.0,9.0,94,0.00,,,0.65,Wunderground v.1.15,2013-05-26 18:08:00,
2013-05-26 13:13:00,53.5,51.8,30.00,ENE,74,0.0,7.0,94,0.00,,,0.65,Wunderground v.1.15,2013-05-26 18:13:00,
2013-05-26 13:18:00,53.8,52.1,29.99,East,84,5.0,7.0,94,0.00,,,0.65,Wunderground v.1.15,2013-05-26 18:18:00,
2013-05-26 13:23:00,53.9,52.2,29.99,East,84,6.0,6.0,94,0.00,,,0.65,Wunderground v.1.15,2013-05-26 18:23:00,
2013-05-26 13:28:00,54.1,52.1,29.99,ESE,112,9.0,9.0,93,0.00,,,0.65,Wunderground v.1.15,2013-05-26 18:28:00,
2013-05-26 13:33:00,53.9,51.9,29.97,ESE,110,0.0,12.0,93,0.00,,,0.65,Wunderground v.1.15,2013-05-26 18:33:00,
2013-05-26 13:38:00,54.1,52.1,29.97,SE,128,3.0,12.0,93,0.00,,,0.65,Wunderground v.1.15,2013-05-26 18:38:00,
2013-05-26 13:43:00,54.5,52.5,29.97,ESE,111,5.0,13.0,93,0.00,,,0.65,Wunderground v.1.15,2013-05-26 18:43:00,
2013-05-26 13:48:00,55.0,53.0,29.96,SE,129,10.0,13.0,93,0.00,,,0.65,Wunderground v.1.15,2013-05-26 18:48:00,
2013-05-26 13:53:00,55.3,53.0,29.96,East,96,5.0,12.0,92,0.00,,,0.65,Wunderground v.1.15,2013-05-26 18:53:00,
2013-05-26 13:58:00,55.7,53.4,29.96,SE,126,9.0,12.0,92,0.00,,,0.65,Wunderground v.1.15,2013-05-26 18:58:00,
2013-05-26 14:03:00,55.9,53.6,29.94,ENE,78,0.0,14.0,92,0.00,,,0.65,Wunderground v.1.15,2013-05-26 19:03:00,
2013-05-26 14:08:00,56.3,54.0,29.94,East,84,9.0,14.0,92,0.00,,,0.65,Wunderground v.1.15,2013-05-26 19:08:00,
2013-05-26 14:13:00,56.5,54.2,29.94,East,98,10.0,10.0,92,0.00,,,0.65,Wunderground v.1.15,2013-05-26 19:13:00,
2013-05-26 14:18:00,56.5,54.2,29.92,NE,40,3.0,11.0,92,0.00,,,0.65,Wunderground v.1.15,2013-05-26 19:18:00,
2013-05-26 14:23:00,56.5,53.9,29.92,ENE,76,5.0,10.0,91,0.00,,,0.65,Wunderground v.1.15,2013-05-26 19:23:00,
2013-05-26 14:28:00,56.6,54.0,29.92,East,84,0.0,10.0,91,0.00,,,0.65,Wunderground v.1.15,2013-05-26 19:28:00,
2013-05-26 14:33:00,56.7,54.1,29.97,NW,309,0.0,5.0,91,0.00,,,0.65,Wunderground v.1.15,2013-05-26 19:33:00,
2013-05-26 14:38:00,56.7,54.1,29.97,East,82,4.0,5.0,91,0.00,,,0.65,Wunderground v.1.15,2013-05-26 19:38:00,
2013-05-26 14:43:00,56.7,54.1,29.97,NE,36,0.0,4.0,91,0.00,,,0.65,Wunderground v.1.15,2013-05-26 19:43:00,
2013-05-26 14:48:00,56.9,54.3,29.96,ENE,73,2.0,4.0,91,0.00,,,0.65,Wunderground v.1.15,2013-05-26 19:48:00,
2013-05-26 14:53:00,56.6,54.0,29.96,ENE,71,3.0,9.0,91,0.00,,,0.65,Wunderground v.1.15,2013-05-26 19:53:00,
2013-05-26 14:58:00,56.3,53.7,29.96,East,98,0.0,9.0,91,0.00,,,0.65,Wunderground v.1.15,2013-05-26 19:58:00,
2013-05-26 15:03:00,56.3,53.7,29.97,East,98,0.0,1.0,91,0.00,,,0.65,Wunderground v.1.15,2013-05-26 20:03:00,
2013-05-26 15:08:00,56.5,54.2,29.97,ESE,121,3.0,4.0,92,0.00,,,0.65,Wunderground v.1.15,2013-05-26 20:08:00,
2013-05-26 15:13:00,56.3,54.0,29.97,ESE,104,0.0,11.0,92,0.00,,,0.65,Wunderground v.1.15,2013-05-26 20:13:00,
2013-05-26 15:18:00,56.3,54.0,29.95,East,98,0.0,11.0,92,0.00,,,0.65,Wunderground v.1.15,2013-05-26 20:18:00,
2013-05-26 15:23:00,56.5,54.2,29.95,ESE,113,0.0,7.0,92,0.00,,,0.65,Wunderground v.1.15,2013-05-26 20:23:00,
2013-05-26 15:28:00,56.6,54.3,29.95,SE,124,10.0,11.0,92,0.00,,,0.65,Wunderground v.1.15,2013-05-26 20:28:00,
2013-05-26 15:33:00,56.6,54.3,29.89,ENE,76,3.0,14.0,92,0.00,,,0.65,Wunderground v.1.15,2013-05-26 20:33:00,
2013-05-26 15:38:00,56.6,54.6,29.89,SE,134,12.0,14.0,93,0.00,,,0.65,Wunderground v.1.15,2013-05-26 20:38:00,
2013-05-26 15:43:00,56.7,54.7,29.89,SE,130,7.0,15.0,93,0.00,,,0.65,Wunderground v.1.15,2013-05-26 20:43:00,
2013-05-26 15:48:00,56.6,54.3,29.89,ESE,119,6.0,15.0,92,0.00,,,0.65,Wunderground v.1.15,2013-05-26 20:48:00,
2013-05-26 15:53:00,56.5,54.5,29.89,ESE,109,0.0,15.0,93,0.00,,,0.65,Wunderground v.1.15,2013-05-26 20:53:00,
2013-05-26 15:58:00,56.5,54.5,29.89,East,90,11.0,20.0,93,0.00,,,0.65,Wunderground v.1.15,2013-05-26 20:58:00,
2013-05-26 16:03:00,56.5,54.5,29.86,ESE,111,18.0,18.0,93,0.00,,,0.65,Wunderground v.1.15,2013-05-26 21:03:00,
2013-05-26 16:08:00,56.5,54.5,29.86,SSE,150,0.0,18.0,93,0.00,,,0.65,Wunderground v.1.15,2013-05-26 21:08:00,
2013-05-26 16:13:00,56.5,54.5,29.86,SSW,194,0.0,14.0,93,0.00,,,0.65,Wunderground v.1.15,2013-05-26 21:13:00,
2013-05-26 16:18:00,56.6,54.6,29.92,SE,130,5.0,14.0,93,0.00,,,0.65,Wunderground v.1.15,2013-05-26 21:18:00,
2013-05-26 16:23:00,56.6,54.9,29.92,East,88,0.0,6.0,94,0.00,,,0.65,Wunderground v.1.15,2013-05-26 21:23:00,
2013-05-26 16:28:00,56.7,54.7,29.92,ESE,103,5.0,13.0,93,0.00,,,0.65,Wunderground v.1.15,2013-05-26 21:28:00,
2013-05-26 16:33:00,56.7,54.7,29.90,East,94,0.0,12.0,93,0.00,,,0.65,Wunderground v.1.15,2013-05-26 21:33:00,
2013-05-26 16:38:00,56.7,54.7,29.90,East,93,7.0,12.0,93,0.00,,,0.65,Wunderground v.1.15,2013-05-26 21:38:00,
2013-05-26 16:43:00,56.5,54.5,29.90,ENE,74,2.0,10.0,93,0.00,,,0.65,Wunderground v.1.15,2013-05-26 21:43:00,
2013-05-26 16:48:00,56.2,54.2,29.89,ENE,72,4.0,12.0,93,0.00,,,0.65,Wunderground v.1.15,2013-05-26 21:48:00,
2013-05-26 16:53:00,55.9,54.2,29.89,SE,134,4.0,13.0,94,0.00,,,0.65,Wunderground v.1.15,2013-05-26 21:53:00,
2013-05-26 16:58:00,55.9,54.2,29.89,East,94,0.0,13.0,94,0.00,,,0.65,Wunderground v.1.15,2013-05-26 21:58:00,
2013-05-26 17:03:00,55.6,53.9,29.92,East,87,0.0,11.0,94,0.00,,,0.65,Wunderground v.1.15,2013-05-26 22:03:00,
2013-05-26 17:09:00,55.4,53.7,29.92,East,91,0.0,11.0,94,0.00,,,0.65,Wunderground v.1.15,2013-05-26 22:09:00,
2013-05-26 17:14:00,55.4,54.0,29.92,ESE,102,2.0,10.0,95,0.00,,,0.65,Wunderground v.1.15,2013-05-26 22:14:00,
2013-05-26 17:19:00,55.3,53.9,29.93,ESE,106,9.0,13.0,95,0.00,,,0.65,Wunderground v.1.15,2013-05-26 22:19:00,
2013-05-26 17:24:00,55.1,53.7,29.93,East,90,0.0,9.0,95,0.00,,,0.65,Wunderground v.1.15,2013-05-26 22:24:00,
2013-05-26 17:29:00,55.1,53.7,29.93,ENE,75,5.0,13.0,95,0.00,,,0.65,Wunderground v.1.15,2013-05-26 22:29:00,
2013-05-26 17:34:00,55.1,53.7,29.93,ENE,77,1.0,9.0,95,0.00,,,0.65,Wunderground v.1.15,2013-05-26 22:34:00,
2013-05-26 17:39:00,55.1,53.7,29.93,ENE,78,0.0,11.0,95,0.00,,,0.65,Wunderground v.1.15,2013-05-26 22:39:00,
2013-05-26 17:44:00,55.3,53.9,29.93,ESE,115,0.0,14.0,95,0.00,,,0.65,Wunderground v.1.15,2013-05-26 22:44:00,
2013-05-26 17:49:00,55.1,53.7,29.93,ESE,117,6.0,14.0,95,0.00,,,0.65,Wunderground v.1.15,2013-05-26 22:49:00,
2013-05-26 17:54:00,55.0,53.6,29.93,East,96,9.0,15.0,95,0.00,,,0.65,Wunderground v.1.15,2013-05-26 22:54:00,
2013-05-26 17:59:00,54.8,53.4,29.93,SE,128,6.0,15.0,95,0.00,,,0.65,Wunderground v.1.15,2013-05-26 22:59:00,
2013-05-26 18:04:00,54.5,53.1,29.94,NE,51,5.0,16.0,95,0.00,,,0.65,Wunderground v.1.15,2013-05-26 23:04:00,
2013-05-26 18:09:00,54.5,53.4,29.94,ESE,113,2.0,16.0,96,0.00,,,0.65,Wunderground v.1.15,2013-05-26 23:09:00,
2013-05-26 18:14:00,54.4,53.3,29.94,East,101,7.0,14.0,96,0.00,,,0.65,Wunderground v.1.15,2013-05-26 23:14:00,
2013-05-26 18:19:00,54.4,53.3,29.94,ESE,112,3.0,14.0,96,0.00,,,0.65,Wunderground v.1.15,2013-05-26 23:19:00,
2013-05-26 18:24:00,54.2,53.1,29.94,East,85,13.0,15.0,96,0.00,,,0.65,Wunderground v.1.15,2013-05-26 23:24:00,
2013-05-26 18:29:00,54.1,53.0,29.94,ESE,113,7.0,15.0,96,0.00,,,0.65,Wunderground v.1.15,2013-05-26 23:29:00,
2013-05-26 18:34:00,54.1,53.0,29.94,East,92,7.0,15.0,96,0.00,,,0.65,Wunderground v.1.15,2013-05-26 23:34:00,
2013-05-26 18:39:00,53.9,52.8,29.94,ESE,102,6.0,17.0,96,0.00,,,0.65,Wunderground v.1.15,2013-05-26 23:39:00,
2013-05-26 18:44:00,53.9,53.1,29.94,East,86,7.0,13.0,97,0.00,,,0.65,Wunderground v.1.15,2013-05-26 23:44:00,
2013-05-26 18:49:00,53.8,53.0,29.94,ENE,70,13.0,14.0,97,0.00,,,0.65,Wunderground v.1.15,2013-05-26 23:49:00,
2013-05-26 18:54:00,53.8,53.0,29.94,East,89,14.0,15.0,97,0.00,,,0.65,Wunderground v.1.15,2013-05-26 23:54:00,
2013-05-26 18:59:00,53.8,53.0,29.94,East,101,4.0,18.0,97,0.00,,,0.65,Wunderground v.1.15,2013-05-26 23:59:00,
2013-05-26 19:04:00,53.8,53.0,29.94,ESE,103,0.0,13.0,97,0.00,,,0.65,Wunderground v.1.15,2013-05-27 00:04:00,
2013-05-26 19:09:00,53.8,53.0,29.94,East,86,9.0,15.0,97,0.00,,,0.65,Wunderground v.1.15,2013-05-27 00:09:00,
2013-05-26 19:14:00,53.8,53.0,29.94,East,99,5.0,14.0,97,0.00,,,0.65,Wunderground v.1.15,2013-05-27 00:14:00,
2013-05-26 19:19:00,53.8,53.0,29.94,SSW,202,1.0,14.0,97,0.00,,,0.65,Wunderground v.1.15,2013-05-27 00:19:00,
2013-05-26 19:24:00,53.6,52.8,29.94,ESE,102,6.0,16.0,97,0.00,,,0.65,Wunderground v.1.15,2013-05-27 00:24:00,
2013-05-26 19:29:00,53.6,53.0,29.94,ESE,111,12.0,16.0,98,0.00,,,0.65,Wunderground v.1.15,2013-05-27 00:29:00,
2013-05-26 19:34:00,53.6,53.0,29.92,East,96,9.0,18.0,98,0.00,,,0.65,Wunderground v.1.15,2013-05-27 00:34:00,
2013-05-26 19:39:00,53.6,53.0,29.92,ESE,113,5.0,18.0,98,0.00,,,0.65,Wunderground v.1.15,2013-05-27 00:39:00,
2013-05-26 19:44:00,53.3,52.8,29.92,East,98,7.0,17.0,98,0.00,,,0.65,Wunderground v.1.15,2013-05-27 00:44:00,
2013-05-26 19:49:00,53.3,52.8,29.91,East,99,5.0,18.0,98,0.00,,,0.65,Wunderground v.1.15,2013-05-27 00:49:00,
2013-05-26 19:54:00,53.3,52.8,29.91,East,98,2.0,17.0,98,0.00,,,0.65,Wunderground v.1.15,2013-05-27 00:54:00,
2013-05-26 19:59:00,53.3,52.8,29.91,East,100,9.0,17.0,98,0.00,,,0.65,Wunderground v.1.15,2013-05-27 00:59:00,
2013-05-26 20:04:00,53.3,52.8,29.93,ESE,107,7.0,9.0,98,0.00,,,0.65,Wunderground v.1.15,2013-05-27 01:04:00,
2013-05-26 20:09:00,53.2,52.7,29.93,SE,127,10.0,14.0,98,0.00,,,0.65,Wunderground v.1.15,2013-05-27 01:09:00,
2013-05-26 20:14:00,53.1,52.6,29.93,East,95,5.0,13.0,98,0.00,,,0.65,Wunderground v.1.15,2013-05-27 01:14:00,
2013-05-26 20:19:00,53.2,52.7,29.93,East,92,0.0,13.0,98,0.00,,,0.65,Wunderground v.1.15,2013-05-27 01:19:00,
2013-05-26 20:24:00,53.2,52.7,29.93,East,92,8.0,10.0,98,0.00,,,0.65,Wunderground v.1.15,2013-05-27 01:24:00,
2013-05-26 20:29:00,53.2,52.7,29.93,ENE,78,5.0,5.0,98,0.00,,,0.65,Wunderground v.1.15,2013-05-27 01:29:00,
2013-05-26 20:34:00,53.2,52.7,29.94,ENE,78,6.0,14.0,98,0.00,,,0.66,Wunderground v.1.15,2013-05-27 01:34:00,
2013-05-26 20:40:00,53.1,52.6,29.94,East,94,2.0,6.0,98,0.21,,,0.68,Wunderground v.1.15,2013-05-27 01:40:00,
2013-05-26 20:45:00,53.1,52.6,29.94,East,87,0.0,9.0,98,0.08,,,0.68,Wunderground v.1.15,2013-05-27 01:45:00,
2013-05-26 20:50:00,53.1,52.6,29.94,ESE,113,9.0,11.0,98,0.05,,,0.68,Wunderground v.1.15,2013-05-27 01:50:00,
2013-05-26 20:55:00,53.1,52.6,29.94,East,101,6.0,11.0,98,0.00,,,0.68,Wunderground v.1.15,2013-05-27 01:55:00,
2013-05-26 21:00:00,53.1,52.6,29.95,East,86,4.0,6.0,98,0.00,,,0.68,Wunderground v.1.15,2013-05-27 02:00:00,
2013-05-26 21:05:00,53.1,52.6,29.95,ENE,57,5.0,9.0,98,0.00,,,0.68,Wunderground v.1.15,2013-05-27 02:05:00,
2013-05-26 21:10:00,53.1,52.6,29.95,North,350,0.0,3.0,98,0.00,,,0.68,Wunderground v.1.15,2013-05-27 02:10:00,
2013-05-26 21:15:00,53.1,52.6,29.98,ESE,103,5.0,10.0,98,3.41,,,0.75,Wunderground v.1.15,2013-05-27 02:15:00,
2013-05-26 21:20:00,52.8,52.3,29.98,East,88,4.0,6.0,98,0.58,,,0.93,Wunderground v.1.15,2013-05-27 02:20:00,
2013-05-26 21:25:00,52.8,52.3,29.98,ESE,106,3.0,12.0,98,0.18,,,0.96,Wunderground v.1.15,2013-05-27 02:25:00,
2013-05-26 21:30:00,52.8,52.3,29.96,East,96,1.0,4.0,98,0.13,,,0.97,Wunderground v.1.15,2013-05-27 02:30:00,
2013-05-26 21:35:00,52.8,52.3,29.96,ESE,104,6.0,9.0,98,0.12,,,0.98,Wunderground v.1.15,2013-05-27 02:35:00,
2013-05-26 21:40:00,52.6,52.1,29.96,East,101,7.0,10.0,98,0.08,,,0.99,Wunderground v.1.15,2013-05-27 02:40:00,
2013-05-26 21:45:00,52.6,52.1,29.95,East,79,10.0,12.0,98,0.18,,,1.00,Wunderground v.1.15,2013-05-27 02:45:00,
2013-05-26 21:50:00,52.6,52.1,29.95,ESE,107,6.0,7.0,98,0.11,,,1.01,Wunderground v.1.15,2013-05-27 02:50:00,
2013-05-26 21:55:00,52.5,52.0,29.95,East,83,14.0,17.0,98,0.26,,,1.03,Wunderground v.1.15,2013-05-27 02:55:00,
2013-05-26 22:00:00,52.5,52.0,29.92,ESE,104,6.0,11.0,98,0.18,,,1.04,Wunderground v.1.15,2013-05-27 03:00:00,
2013-05-26 22:05:00,52.5,52.0,29.92,East,89,10.0,15.0,98,0.07,,,1.04,Wunderground v.1.15,2013-05-27 03:05:00,
2013-05-26 22:10:00,52.5,52.0,29.92,East,96,12.0,14.0,98,0.07,,,1.05,Wunderground v.1.15,2013-05-27 03:10:00,
2013-05-26 22:15:00,52.5,52.0,29.88,SE,126,16.0,20.0,98,0.06,,,1.06,Wunderground v.1.15,2013-05-27 03:15:00,
2013-05-26 22:20:00,52.5,52.0,29.88,SE,140,3.0,16.0,98,0.06,,,1.06,Wunderground v.1.15,2013-05-27 03:20:00,
2013-05-26 22:25:00,52.5,52.2,29.88,ESE,123,11.0,20.0,99,0.06,,,1.06,Wunderground v.1.15,2013-05-27 03:25:00,
2013-05-26 22:31:00,52.5,52.0,29.87,ESE,105,7.0,18.0,98,0.04,,,1.06,Wunderground v.1.15,2013-05-27 03:31:00,
2013-05-26 22:36:00,52.5,52.2,29.87,SSE,155,16.0,18.0,99,0.00,,,1.06,Wunderground v.1.15,2013-05-27 03:36:00,
2013-05-26 22:41:00,52.5,52.2,29.87,SE,136,7.0,10.0,99,0.00,,,1.06,Wunderground v.1.15,2013-05-27 03:41:00,
2013-05-26 22:46:00,52.5,52.2,29.85,South,169,7.0,19.0,99,0.00,,,1.06,Wunderground v.1.15,2013-05-27 03:46:00,
2013-05-26 22:51:00,52.5,52.2,29.85,SE,125,9.0,13.0,99,0.00,,,1.06,Wunderground v.1.15,2013-05-27 03:51:00,
2013-05-26 22:56:00,52.5,52.2,29.85,SE,142,8.0,20.0,99,0.00,,,1.06,Wunderground v.1.15,2013-05-27 03:56:00,
2013-05-26 23:01:00,52.3,52.0,29.84,ENE,67,7.0,18.0,99,0.00,,,1.06,Wunderground v.1.15,2013-05-27 04:01:00,
2013-05-26 23:05:00,52.3,52.0,29.84,SE,138,6.0,23.0,99,0.00,,,1.06,Wunderground v.1.15,2013-05-27 04:05:00,
2013-05-26 23:10:00,52.3,52.0,29.84,SE,130,12.0,12.0,99,0.00,,,1.06,Wunderground v.1.15,2013-05-27 04:10:00,
2013-05-26 23:15:00,52.3,52.0,29.80,SSE,147,20.0,22.0,99,0.00,,,1.06,Wunderground v.1.15,2013-05-27 04:15:00,
2013-05-26 23:17:00,52.5,52.2,29.80,SE,137,7.0,22.0,99,0.00,,,1.06,Wunderground v.1.15,2013-05-27 04:17:00,
2013-05-26 23:22:00,52.5,52.2,29.80,SE,146,12.0,15.0,99,0.00,,,1.06,Wunderground v.1.15,2013-05-27 04:22:00,
2013-05-26 23:24:00,52.5,52.2,29.80,SE,136,9.0,24.0,99,0.00,,,1.06,Wunderground v.1.15,2013-05-27 04:24:00,
2013-05-26 23:29:00,52.6,52.3,29.80,South,185,13.0,24.0,99,0.00,,,1.06,Wunderground v.1.15,2013-05-27 04:29:00,
2013-05-26 23:34:00,52.6,52.3,29.80,SSE,150,11.0,13.0,99,0.00,,,1.06,Wunderground v.1.15,2013-05-27 04:34:00,
2013-05-26 23:36:00,52.6,52.3,29.80,SE,140,9.0,20.0,99,0.00,,,1.06,Wunderground v.1.15,2013-05-27 04:36:00,
2013-05-26 23:41:00,52.6,52.3,29.80,South,182,9.0,11.0,99,0.00,,,1.06,Wunderground v.1.15,2013-05-27 04:41:00,
2013-05-26 23:46:00,52.8,52.5,29.82,South,191,7.0,21.0,99,0.00,,,1.06,Wunderground v.1.15,2013-05-27 04:46:00,
2013-05-26 23:51:00,52.8,52.5,29.82,ESE,113,8.0,17.0,99,0.00,,,1.06,Wunderground v.1.15,2013-05-27 04:51:00,
2013-05-26 23:56:00,52.9,52.6,29.82,NNE,17,8.0,17.0,99,0.00,,,1.06,Wunderground v.1.15,2013-05-27 04:56:00,